To NAV CANADA Home Page Login to a new session Search on AWWS site Feedback and Comments Disclaimer Vers la page française équivalente Tips FAQ What's new on the site To the Forecasts and Observations / NOTAM section To "File a Flight Plan" website Publications and other links Update of the User's profile FIC Telephone Numbers My Weather Data Folder Route Weather Data Regional Weather Data Local Weather Data To the Forecasts and Observations / NOTAM section
Request Generated 12/10/2016 at 16:31:04 UTC . Weather information available at that time is displayed.

METAR/TAF

YARMOUTH/NS    

METAR CYQI 101600Z 32014KT 2SM -SHSN BKN027TCU M06/M08 A3009 RMK TCU7
SLP193=
SPECI CYQI 101553Z 32015KT 2SM -SHSN FEW014 BKN030TCU M06/M08 A3009
RMK SF2TCU5 SLP194=
METAR CYQI 101500Z 32012G22KT 5SM -SHSN BKN034TCU M05/M10 A3011 RMK
TCU7 SLP199=
METAR CYQI 101400Z 31016G22KT 5SM -SHSN BKN030TCU BKN090 M05/M11
A3009 RMK TCU5AC1 AC TR SLP195=

TAF AMD CYQI 101228Z 1012/1024 33015G25KT P6SM -SHSN OVC030 TEMPO
1012/1024 2SM -SHSN OVC020
RMK NXT FCST BY 101800Z=
Your time UTC time
Weather data provided by Environment Canada and NAV CANADA